createdAt,value
2023-04-02T00:01:36.761Z,1.75
2023-04-02T00:04:09.034Z,1.30
2023-04-02T00:06:40.544Z,0.90
2023-04-02T00:09:27.898Z,2.08
2023-04-02T00:11:55.937Z,1.05
2023-04-02T00:14:25.192Z,1.10
2023-04-02T00:16:52.832Z,0.98
2023-04-02T00:19:24.289Z,1.10
2023-04-02T00:21:51.955Z,1.10
2023-04-02T00:24:21.205Z,0.90
2023-04-02T00:26:51.330Z,0.82
2023-04-02T00:29:19.708Z,1.17
2023-04-02T00:31:48.479Z,0.90
2023-04-02T00:34:18.416Z,0.85
2023-04-02T00:36:47.228Z,0.80
2023-04-02T00:39:18.063Z,0.95
2023-04-02T00:41:47.517Z,0.90
2023-04-02T00:44:22.036Z,1.00
2023-04-02T00:46:50.760Z,0.90
2023-04-02T00:49:28.090Z,0.90
2023-04-02T00:51:57.750Z,0.95
2023-04-02T00:54:26.808Z,1.00
2023-04-02T00:56:56.167Z,0.90
2023-04-02T00:59:27.420Z,1.30
2023-04-02T01:01:55.526Z,1.10
2023-04-02T01:04:28.573Z,1.08
2023-04-02T01:06:56.730Z,1.00
2023-04-02T01:09:28.961Z,0.80
2023-04-02T01:12:18.422Z,1.00
2023-04-02T01:14:53.104Z,1.00
2023-04-02T01:17:28.268Z,0.80
2023-04-02T01:20:13.955Z,0.80
2023-04-02T01:22:47.986Z,0.80
2023-04-02T01:25:18.466Z,0.77
2023-04-02T01:27:50.151Z,0.80
2023-04-02T01:30:20.190Z,1.02
2023-04-02T01:32:48.314Z,1.00
2023-04-02T01:35:16.298Z,1.00
2023-04-02T01:37:49.329Z,0.88
2023-04-02T01:40:34.439Z,0.90
2023-04-02T01:43:07.549Z,1.20
2023-04-02T01:45:36.890Z,0.95
2023-04-02T01:48:06.481Z,1.10
2023-04-02T01:50:37.213Z,0.90
2023-04-02T01:53:05.593Z,1.00
2023-04-02T01:55:36.399Z,0.80
2023-04-02T01:58:04.876Z,0.90
2023-04-02T02:00:33.452Z,0.88
2023-04-02T02:03:03.208Z,0.93
2023-04-02T02:05:30.858Z,0.90
2023-04-02T02:08:01.168Z,1.20
2023-04-02T02:10:29.786Z,1.20
2023-04-02T02:13:00.387Z,1.33
2023-04-02T02:15:28.319Z,1.95
2023-04-02T02:17:58.877Z,2.90
2023-04-02T02:20:29.155Z,1.55
2023-04-02T02:22:57.342Z,1.30
2023-04-02T02:25:26.025Z,1.10
2023-04-02T02:27:59.244Z,1.02
2023-04-02T02:30:29.600Z,0.85
2023-04-02T02:33:00.862Z,0.90
2023-04-02T02:35:30.576Z,0.90
2023-04-02T02:38:01.153Z,0.95
2023-04-02T02:40:30.654Z,1.00
2023-04-02T02:43:00.087Z,0.80
2023-04-02T02:45:30.037Z,0.90
2023-04-02T02:47:58.343Z,0.93
2023-04-02T02:50:28.046Z,1.10
2023-04-02T02:52:58.700Z,0.98
2023-04-02T02:55:29.625Z,1.10
2023-04-02T02:57:59.592Z,1.05
2023-04-02T03:00:27.455Z,1.00
2023-04-02T03:02:56.369Z,1.00
2023-04-02T03:05:26.196Z,0.80
2023-04-02T03:07:54.802Z,1.20
2023-04-02T03:10:27.373Z,1.20
2023-04-02T03:12:58.700Z,1.10
2023-04-02T03:15:32.304Z,0.95
2023-04-02T03:18:01.937Z,1.20
2023-04-02T03:20:34.736Z,1.00
2023-04-02T03:23:06.870Z,0.85
2023-04-02T03:25:40.979Z,0.90
2023-04-02T03:28:12.688Z,0.73
2023-04-02T03:30:43.140Z,1.00
2023-04-02T03:33:14.784Z,0.90
2023-04-02T03:35:43.893Z,0.70
2023-04-02T03:38:14.575Z,0.90
2023-04-02T03:40:46.080Z,0.90
2023-04-02T03:43:16.334Z,1.00
2023-04-02T03:45:46.517Z,0.93
2023-04-02T03:48:16.911Z,0.90
2023-04-02T03:50:46.563Z,1.00
2023-04-02T03:53:26.479Z,1.10
2023-04-02T03:55:56.065Z,1.05
2023-04-02T03:58:25.322Z,1.10
2023-04-02T04:00:55.359Z,1.17
2023-04-02T04:03:25.686Z,1.05
2023-04-02T04:05:54.360Z,1.10
2023-04-02T04:08:23.726Z,1.20
2023-04-02T04:10:52.330Z,1.13
2023-04-02T04:13:23.503Z,1.17
2023-04-02T04:15:54.122Z,1.02
2023-04-02T04:18:24.833Z,1.10
2023-04-02T04:20:56.826Z,1.20
2023-04-02T04:23:30.234Z,1.30
2023-04-02T04:25:58.848Z,1.00
2023-04-02T04:28:30.721Z,1.00
2023-04-02T04:31:00.041Z,1.10
2023-04-02T04:33:34.584Z,1.00
2023-04-02T04:36:03.194Z,0.90
2023-04-02T04:38:33.461Z,1.10
2023-04-02T04:41:02.982Z,1.20
2023-04-02T04:43:34.664Z,1.10
2023-04-02T04:46:04.476Z,0.90
2023-04-02T04:48:36.456Z,1.05
2023-04-02T04:51:06.576Z,1.05
2023-04-02T04:53:34.915Z,1.00
2023-04-02T04:56:18.205Z,1.17
2023-04-02T04:58:51.517Z,1.20
2023-04-02T05:01:24.064Z,1.30
2023-04-02T05:03:52.610Z,1.30
2023-04-02T05:06:25.011Z,1.33
2023-04-02T05:08:53.732Z,1.20
2023-04-02T05:11:26.631Z,1.20
2023-04-02T05:13:57.355Z,1.40
2023-04-02T05:16:27.427Z,1.10
2023-04-02T05:18:58.728Z,1.30
2023-04-02T05:21:28.309Z,1.10
2023-04-02T05:23:58.339Z,1.20
2023-04-02T05:26:27.307Z,1.10
2023-04-02T05:28:58.605Z,1.20
2023-04-02T05:31:29.756Z,1.20
2023-04-02T05:33:57.562Z,1.23
2023-04-02T05:36:26.700Z,1.20
2023-04-02T05:38:56.411Z,1.25
2023-04-02T05:41:27.094Z,1.20
2023-04-02T05:44:01.345Z,1.27
2023-04-02T05:46:32.756Z,1.20
2023-04-02T05:49:00.884Z,1.00
2023-04-02T05:51:31.997Z,1.30
2023-04-02T05:54:01.415Z,1.33
2023-04-02T05:56:32.052Z,1.60
2023-04-02T05:59:03.542Z,1.30
2023-04-02T06:01:37.963Z,1.30
2023-04-02T06:04:08.763Z,1.48
2023-04-02T06:06:48.805Z,1.23
2023-04-02T06:09:18.273Z,1.35
2023-04-02T06:11:47.457Z,1.55
2023-04-02T06:14:17.853Z,1.60
2023-04-02T06:16:45.637Z,1.50
2023-04-02T06:19:17.229Z,1.40
2023-04-02T06:21:45.313Z,1.40
2023-04-02T06:24:15.400Z,1.30
2023-04-02T06:26:45.400Z,1.13
2023-04-02T06:29:15.091Z,1.55
2023-04-02T06:31:47.336Z,1.42
2023-04-02T06:34:17.282Z,1.45
2023-04-02T06:36:45.337Z,1.40
2023-04-02T06:39:18.128Z,1.60
2023-04-02T06:41:45.677Z,1.35
2023-04-02T06:44:16.790Z,1.40
2023-04-02T06:46:49.557Z,1.20
2023-04-02T06:49:22.116Z,1.50
2023-04-02T06:51:50.484Z,1.17
2023-04-02T06:54:18.905Z,1.50
2023-04-02T06:56:48.332Z,1.40
2023-04-02T06:59:16.686Z,1.80
2023-04-02T07:01:48.012Z,1.48
2023-04-02T07:04:16.300Z,1.35
2023-04-02T07:06:44.214Z,1.30
2023-04-02T07:09:11.844Z,1.50
2023-04-02T07:11:39.613Z,1.38
2023-04-02T07:14:07.195Z,1.40
2023-04-02T07:16:36.694Z,1.40
2023-04-02T07:19:05.841Z,1.33
2023-04-02T07:21:33.453Z,1.20
2023-04-02T07:24:01.040Z,1.20
2023-04-02T07:26:28.597Z,1.60
2023-04-02T07:28:56.682Z,1.30
2023-04-02T07:31:25.912Z,1.20
2023-04-02T07:33:54.206Z,1.30
2023-04-02T07:36:24.368Z,1.95
2023-04-02T07:38:51.936Z,1.80
2023-04-02T07:41:21.140Z,1.70
2023-04-02T07:43:48.939Z,1.63
2023-04-02T07:46:18.110Z,2.22
2023-04-02T07:48:45.937Z,4.85
2023-04-02T07:51:17.204Z,2.97
2023-04-02T07:53:50.222Z,3.08
2023-04-02T07:56:19.136Z,1.80
2023-04-02T07:58:46.906Z,1.42
2023-04-02T08:01:16.743Z,1.92
2023-04-02T08:03:44.371Z,1.80
2023-04-02T08:06:12.121Z,1.90
2023-04-02T08:08:39.748Z,1.42
2023-04-02T08:11:09.044Z,1.40
2023-04-02T08:13:37.188Z,1.13
2023-04-02T08:16:05.718Z,1.20
2023-04-02T08:18:33.243Z,1.42
2023-04-02T08:21:01.285Z,1.27
2023-04-02T08:23:28.980Z,1.20
2023-04-02T08:25:56.584Z,1.70
2023-04-02T08:28:25.469Z,2.10
2023-04-02T08:30:53.051Z,1.30
2023-04-02T08:33:20.834Z,1.70
2023-04-02T08:35:49.033Z,1.45
2023-04-02T08:38:16.898Z,1.60
2023-04-02T08:40:45.982Z,2.53
2023-04-02T08:43:23.686Z,2.00
2023-04-02T08:45:58.993Z,1.30
2023-04-02T08:48:26.543Z,1.38
2023-04-02T08:50:54.136Z,1.30
2023-04-02T08:53:22.902Z,1.45
2023-04-02T08:55:55.912Z,2.33
2023-04-02T08:58:28.722Z,1.35
2023-04-02T09:00:58.815Z,1.38
2023-04-02T09:03:29.876Z,1.40
2023-04-02T09:05:58.575Z,2.03
2023-04-02T09:08:27.150Z,1.85
2023-04-02T09:10:58.714Z,1.35
2023-04-02T09:13:27.328Z,1.40
2023-04-02T09:15:57.504Z,1.50
2023-04-02T09:18:29.416Z,1.35
2023-04-02T09:20:56.969Z,1.45
2023-04-02T09:23:25.976Z,1.40
2023-04-02T09:26:02.987Z,1.40
2023-04-02T09:28:31.978Z,1.20
2023-04-02T09:31:03.331Z,1.20
2023-04-02T09:33:46.104Z,1.17
2023-04-02T09:36:26.530Z,1.45
2023-04-02T09:39:02.127Z,1.50
2023-04-02T09:41:30.560Z,1.58
2023-04-02T09:44:14.629Z,1.40
2023-04-02T09:46:49.028Z,1.17
2023-04-02T09:49:19.001Z,1.30
2023-04-02T09:51:46.800Z,1.40
2023-04-02T09:54:15.336Z,1.30
2023-04-02T09:57:00.465Z,1.30
2023-04-02T09:59:28.537Z,1.30
2023-04-02T10:02:03.382Z,1.25
2023-04-02T10:04:44.060Z,1.60
2023-04-02T10:07:32.143Z,1.42
2023-04-02T10:10:00.341Z,1.50
2023-04-02T10:12:28.138Z,1.52
2023-04-02T10:14:56.272Z,1.25
2023-04-02T10:17:25.951Z,1.10
2023-04-02T10:19:57.137Z,1.40
2023-04-02T10:22:24.748Z,1.25
2023-04-02T10:24:52.309Z,1.40
2023-04-02T10:27:28.731Z,1.20
2023-04-02T10:30:06.581Z,1.77
2023-04-02T10:32:38.362Z,1.10
2023-04-02T10:35:14.023Z,0.93
2023-04-02T10:38:05.379Z,1.10
2023-04-02T10:40:35.571Z,1.00
2023-04-02T10:43:18.546Z,1.00
2023-04-02T10:45:47.257Z,1.23
2023-04-02T10:48:21.117Z,1.15
2023-04-02T10:50:56.186Z,1.00
2023-04-02T10:53:26.831Z,0.98
2023-04-02T10:55:56.369Z,1.00
2023-04-02T10:58:25.114Z,1.20
2023-04-02T11:00:54.774Z,1.00
2023-04-02T11:03:29.704Z,1.27
2023-04-02T11:05:59.554Z,1.10
2023-04-02T11:08:27.956Z,0.88
2023-04-02T11:10:57.794Z,0.90
2023-04-02T11:13:26.918Z,1.00
2023-04-02T11:15:54.752Z,1.00
2023-04-02T11:18:28.045Z,0.90
2023-04-02T11:21:04.617Z,0.90
2023-04-02T11:23:56.119Z,1.00
2023-04-02T11:26:31.172Z,1.17
2023-04-02T11:29:17.084Z,1.25
2023-04-02T11:31:45.491Z,1.10
2023-04-02T11:34:14.586Z,1.40
2023-04-02T11:37:01.599Z,1.10
2023-04-02T11:39:55.381Z,1.38
2023-04-02T11:42:30.802Z,1.00
2023-04-02T11:45:00.697Z,0.77
2023-04-02T11:47:28.672Z,1.10
2023-04-02T11:50:11.298Z,1.10
2023-04-02T11:52:51.875Z,0.90
2023-04-02T11:55:27.173Z,1.10
2023-04-02T11:58:15.813Z,0.98
2023-04-02T12:00:57.363Z,1.02
2023-04-02T12:03:32.320Z,3.75
2023-04-02T12:06:04.184Z,0.93
2023-04-02T12:08:47.306Z,1.20
2023-04-02T12:11:33.509Z,1.50
2023-04-02T12:14:01.434Z,1.00
2023-04-02T12:16:32.669Z,1.77
2023-04-02T12:19:00.586Z,1.55
2023-04-02T12:21:29.006Z,1.20
2023-04-02T12:24:33.083Z,1.50
2023-04-02T12:27:15.505Z,0.93
2023-04-02T12:29:43.228Z,0.90
2023-04-02T12:32:20.218Z,1.20
2023-04-02T12:34:47.823Z,1.60
2023-04-02T12:37:21.095Z,1.73
2023-04-02T12:39:53.096Z,1.20
2023-04-02T12:42:29.054Z,6.88
2023-04-02T12:44:56.651Z,5.00
2023-04-02T12:47:24.549Z,2.08
2023-04-02T12:49:52.282Z,1.23
2023-04-02T12:52:20.953Z,0.88
2023-04-02T12:54:49.381Z,1.15
2023-04-02T12:57:36.201Z,1.20
2023-04-02T13:00:25.417Z,1.50
2023-04-02T13:02:53.420Z,1.58
2023-04-02T13:05:33.897Z,1.25
2023-04-02T13:08:01.922Z,1.60
2023-04-02T13:10:29.672Z,1.27
2023-04-02T13:12:59.007Z,1.40
2023-04-02T13:15:28.659Z,1.33
2023-04-02T13:18:07.004Z,1.30
2023-04-02T13:20:35.412Z,1.38
2023-04-02T13:23:04.549Z,1.20
2023-04-02T13:25:33.126Z,1.10
2023-04-02T13:28:02.514Z,0.98
2023-04-02T13:30:30.503Z,1.10
2023-04-02T13:32:58.048Z,1.63
2023-04-02T13:35:26.629Z,1.27
2023-04-02T13:37:54.252Z,1.58
2023-04-02T13:40:21.894Z,1.30
2023-04-02T13:42:49.912Z,1.48
2023-04-02T13:45:27.725Z,1.23
2023-04-02T13:47:57.262Z,1.30
2023-04-02T13:50:25.097Z,1.50
2023-04-02T13:52:52.698Z,1.30
2023-04-02T13:55:21.732Z,1.20
2023-04-02T13:57:50.099Z,1.42
2023-04-02T14:00:18.166Z,1.17
2023-04-02T14:02:49.926Z,1.20
2023-04-02T14:05:25.098Z,1.30
2023-04-02T14:07:58.250Z,1.15
2023-04-02T14:10:30.971Z,1.30
2023-04-02T14:13:10.855Z,1.30
2023-04-02T14:15:45.614Z,1.40
2023-04-02T14:18:28.007Z,1.35
2023-04-02T14:21:02.326Z,1.50
2023-04-02T14:23:36.361Z,1.40
2023-04-02T14:26:07.448Z,1.10
2023-04-02T14:28:39.222Z,1.20
2023-04-02T14:31:11.435Z,1.40
2023-04-02T14:33:42.727Z,1.50
2023-04-02T14:36:16.661Z,1.35
2023-04-02T14:38:49.686Z,1.50
2023-04-02T14:41:19.468Z,1.40
2023-04-02T14:43:48.243Z,1.35
2023-04-02T14:46:15.970Z,1.42
2023-04-02T14:48:46.227Z,1.42
2023-04-02T14:51:18.530Z,1.48
2023-04-02T14:53:50.496Z,1.50
2023-04-02T14:56:19.884Z,2.20
2023-04-02T14:58:51.229Z,1.60
2023-04-02T15:01:21.544Z,1.50
2023-04-02T15:03:50.878Z,1.77
2023-04-02T15:06:22.413Z,2.22
2023-04-02T15:09:06.191Z,2.40
2023-04-02T15:11:37.336Z,2.55
2023-04-02T15:14:08.073Z,2.50
2023-04-02T15:16:36.608Z,2.40
2023-04-02T15:19:05.115Z,2.60
2023-04-02T15:21:55.948Z,2.42
2023-04-02T15:24:31.326Z,2.53
2023-04-02T15:27:02.046Z,2.45
2023-04-02T15:29:38.254Z,2.28
2023-04-02T15:32:09.153Z,3.28
2023-04-02T15:34:37.652Z,2.90
2023-04-02T15:37:19.708Z,2.70
2023-04-02T15:39:56.716Z,2.63
2023-04-02T15:42:26.328Z,3.47
2023-04-02T15:45:03.165Z,4.15
2023-04-02T15:47:36.823Z,4.18
2023-04-02T15:50:09.652Z,6.03
2023-04-02T15:52:41.972Z,4.38
2023-04-02T15:55:14.603Z,3.00
2023-04-02T15:58:05.894Z,2.65
2023-04-02T16:00:34.497Z,1.98
2023-04-02T16:03:11.039Z,2.30
2023-04-02T16:05:40.908Z,3.40
2023-04-02T16:08:19.712Z,2.47
2023-04-02T16:10:47.696Z,3.30
2023-04-02T16:13:18.854Z,1.95
2023-04-02T16:15:48.914Z,4.20
2023-04-02T16:18:20.430Z,10.75
2023-04-02T16:20:48.475Z,2.88
2023-04-02T16:23:19.368Z,1.90
2023-04-02T16:25:53.763Z,3.40
2023-04-02T16:28:24.985Z,6.57
2023-04-02T16:30:56.337Z,2.03
2023-04-02T16:33:33.853Z,4.95
2023-04-02T16:36:07.494Z,3.92
2023-04-02T16:38:42.941Z,2.05
2023-04-02T16:41:14.696Z,2.60
2023-04-02T16:43:46.078Z,2.58
2023-04-02T16:46:28.187Z,2.63
2023-04-02T16:49:08.114Z,2.30
2023-04-02T16:51:39.034Z,2.75
2023-04-02T16:54:11.379Z,1.90
2023-04-02T16:56:47.066Z,3.88
2023-04-02T16:59:19.060Z,3.22
2023-04-02T17:01:51.054Z,2.28
2023-04-02T17:04:29.012Z,5.70
2023-04-02T17:07:01.490Z,6.85
2023-04-02T17:09:36.714Z,4.70
2023-04-02T17:12:07.644Z,3.72
2023-04-02T17:14:39.917Z,2.22
2023-04-02T17:17:10.443Z,2.28
2023-04-02T17:19:37.980Z,2.70
2023-04-02T17:22:06.436Z,2.13
2023-04-02T17:24:38.146Z,2.30
2023-04-02T17:27:08.815Z,2.30
2023-04-02T17:29:37.544Z,2.92
2023-04-02T17:32:07.366Z,3.33
2023-04-02T17:34:34.894Z,2.63
2023-04-02T17:37:05.627Z,2.78
2023-04-02T17:39:36.342Z,2.30
2023-04-02T17:42:09.558Z,3.00
2023-04-02T17:44:48.089Z,3.28
2023-04-02T17:47:20.465Z,3.20
2023-04-02T17:49:51.656Z,2.78
2023-04-02T17:52:22.339Z,3.30
2023-04-02T17:54:55.000Z,3.10
2023-04-02T17:57:47.562Z,3.20
2023-04-02T18:00:20.665Z,3.75
2023-04-02T18:02:56.952Z,4.10
2023-04-02T18:05:29.193Z,3.70
2023-04-02T18:07:59.325Z,3.47
2023-04-02T18:10:31.799Z,2.97
2023-04-02T18:13:02.975Z,3.03
2023-04-02T18:15:38.430Z,3.15
2023-04-02T18:18:11.586Z,3.40
2023-04-02T18:20:40.807Z,3.45
2023-04-02T18:23:12.191Z,3.83
2023-04-02T18:25:46.336Z,3.00
2023-04-02T18:28:24.137Z,3.78
2023-04-02T18:30:54.843Z,3.05
2023-04-02T18:33:29.662Z,3.55
2023-04-02T18:36:00.709Z,3.40
2023-04-02T18:38:32.530Z,3.53
2023-04-02T18:41:06.918Z,3.65
2023-04-02T18:43:43.428Z,3.95
2023-04-02T18:46:14.709Z,4.55
2023-04-02T18:48:48.001Z,3.45
2023-04-02T18:51:20.629Z,3.50
2023-04-02T18:53:52.222Z,4.25
2023-04-02T18:56:22.043Z,3.03
2023-04-02T18:58:53.157Z,3.28
2023-04-02T19:01:23.485Z,3.22
2023-04-02T19:03:52.771Z,3.17
2023-04-02T19:06:22.325Z,3.30
2023-04-02T19:08:52.192Z,3.65
2023-04-02T19:11:22.144Z,3.08
2023-04-02T19:13:51.404Z,3.90
2023-04-02T19:16:37.323Z,3.90
2023-04-02T19:19:08.392Z,3.47
2023-04-02T19:21:40.085Z,2.63
2023-04-02T19:24:13.303Z,3.30
2023-04-02T19:26:45.237Z,3.05
2023-04-02T19:29:19.989Z,2.90
2023-04-02T19:31:56.780Z,2.92
2023-04-02T19:34:28.228Z,2.83
2023-04-02T19:36:58.166Z,2.72
2023-04-02T19:39:34.732Z,2.70
2023-04-02T19:42:10.274Z,3.28
2023-04-02T19:44:39.234Z,2.72
2023-04-02T19:47:09.035Z,2.60
2023-04-02T19:49:36.576Z,3.25
2023-04-02T19:52:04.094Z,3.10
2023-04-02T19:54:31.632Z,2.90
2023-04-02T19:57:00.014Z,2.83
2023-04-02T19:59:27.536Z,3.10
2023-04-02T20:01:55.035Z,3.03
2023-04-02T20:04:23.968Z,3.13
2023-04-02T20:06:51.674Z,3.28
2023-04-02T20:09:19.202Z,3.08
2023-04-02T20:11:46.729Z,2.85
2023-04-02T20:14:14.477Z,3.50
2023-04-02T20:16:43.278Z,3.05
2023-04-02T20:19:12.113Z,2.88
2023-04-02T20:21:41.148Z,3.13
2023-04-02T20:24:09.288Z,3.20
2023-04-02T20:26:37.163Z,2.75
2023-04-02T20:29:04.899Z,2.72
2023-04-02T20:31:32.526Z,2.85
2023-04-02T20:34:02.541Z,3.42
2023-04-02T20:36:30.324Z,4.70
2023-04-02T20:38:59.665Z,4.72
2023-04-02T20:41:27.508Z,4.25
2023-04-02T20:43:55.140Z,4.55
2023-04-02T20:46:22.894Z,4.55
2023-04-02T20:48:50.356Z,3.45
2023-04-02T20:51:17.972Z,3.45
2023-04-02T20:53:46.158Z,2.88
2023-04-02T20:56:16.704Z,3.10
2023-04-02T20:58:44.491Z,3.10
2023-04-02T21:01:12.949Z,3.20
2023-04-02T21:03:40.618Z,3.22
2023-04-02T21:06:08.900Z,2.95
2023-04-02T21:08:37.020Z,3.75
2023-04-02T21:11:05.803Z,3.00
2023-04-02T21:13:36.524Z,2.77
2023-04-02T21:16:04.384Z,3.40
2023-04-02T21:18:32.977Z,3.15
2023-04-02T21:21:01.195Z,2.90
2023-04-02T21:23:28.713Z,2.90
2023-04-02T21:25:57.241Z,2.97
2023-04-02T21:28:24.777Z,3.28
2023-04-02T21:30:53.734Z,2.97
2023-04-02T21:33:21.204Z,2.60
2023-04-02T21:35:48.962Z,3.10
2023-04-02T21:38:16.521Z,3.40
2023-04-02T21:40:44.041Z,2.72
2023-04-02T21:43:11.489Z,3.40
2023-04-02T21:45:38.975Z,2.87
2023-04-02T21:48:08.034Z,2.93
2023-04-02T21:50:35.715Z,3.13
2023-04-02T21:53:03.995Z,2.85
2023-04-02T21:55:31.502Z,3.00
2023-04-02T21:57:59.089Z,2.70
2023-04-02T22:00:27.441Z,3.00
2023-04-02T22:02:55.035Z,3.22
2023-04-02T22:05:24.026Z,2.80
2023-04-02T22:07:51.540Z,3.00
2023-04-02T22:10:19.205Z,3.25
2023-04-02T22:12:46.715Z,3.38
2023-04-02T22:15:14.218Z,3.30
2023-04-02T22:17:41.775Z,2.50
2023-04-02T22:20:10.686Z,3.00
2023-04-02T22:22:39.476Z,3.40
2023-04-02T22:25:07.615Z,3.20
2023-04-02T22:27:35.167Z,3.40
2023-04-02T22:30:02.651Z,3.03
2023-04-02T22:32:30.394Z,3.38
2023-04-02T22:34:57.964Z,2.95
2023-04-02T22:37:25.538Z,3.05
2023-04-02T22:39:54.371Z,2.70
2023-04-02T22:42:22.196Z,3.40
2023-04-02T22:44:49.884Z,3.00
2023-04-02T22:47:17.389Z,3.15
2023-04-02T22:49:44.919Z,2.95
2023-04-02T22:52:12.444Z,2.55
2023-04-02T22:54:40.039Z,3.25
2023-04-02T22:57:09.046Z,2.70
2023-04-02T22:59:36.594Z,2.90
2023-04-02T23:02:04.079Z,2.97
2023-04-02T23:04:31.757Z,2.78
2023-04-02T23:06:59.275Z,2.67
2023-04-02T23:09:26.820Z,3.38
2023-04-02T23:11:54.364Z,2.92
2023-04-02T23:14:23.289Z,2.70
2023-04-02T23:16:50.839Z,2.83
2023-04-02T23:19:18.320Z,3.07
2023-04-02T23:21:46.093Z,3.22
2023-04-02T23:24:13.755Z,2.88
2023-04-02T23:26:41.308Z,2.60
2023-04-02T23:29:08.839Z,2.60
2023-04-02T23:31:37.804Z,3.03
2023-04-02T23:34:05.449Z,3.07
2023-04-02T23:36:34.140Z,3.10
2023-04-02T23:39:02.688Z,3.00
2023-04-02T23:41:30.680Z,3.17
2023-04-02T23:43:59.278Z,2.72
2023-04-02T23:46:26.973Z,2.67
2023-04-02T23:48:56.664Z,2.80
2023-04-02T23:51:24.791Z,2.87
2023-04-02T23:53:52.586Z,2.90
2023-04-02T23:56:20.843Z,2.85
2023-04-02T23:58:48.540Z,2.93
